createdAt,value
2018-05-03T00:00:24.297Z,3.95
2018-05-03T00:02:52.508Z,3.40
2018-05-03T00:05:19.974Z,4.60
2018-05-03T00:07:47.437Z,4.32
2018-05-03T00:10:14.894Z,3.37
2018-05-03T00:12:42.336Z,3.55
2018-05-03T00:15:09.809Z,3.92
2018-05-03T00:17:37.329Z,3.40
2018-05-03T00:20:04.783Z,5.35
2018-05-03T00:22:35.597Z,3.90
2018-05-03T00:25:03.678Z,5.43
2018-05-03T00:27:31.977Z,4.25
2018-05-03T00:30:00.419Z,4.45
2018-05-03T00:32:32.086Z,5.15
2018-05-03T00:35:00.328Z,3.53
2018-05-03T00:37:27.783Z,4.00
2018-05-03T00:39:55.263Z,4.45
2018-05-03T00:42:22.728Z,5.90
2018-05-03T00:44:50.943Z,4.10
2018-05-03T00:47:18.408Z,4.55
2018-05-03T00:49:45.858Z,4.97
2018-05-03T00:52:13.319Z,6.28
2018-05-03T00:54:47.514Z,5.55
2018-05-03T00:57:14.970Z,5.95
2018-05-03T00:59:42.427Z,4.60
2018-05-03T01:02:09.893Z,4.82
2018-05-03T01:04:37.365Z,3.60
2018-05-03T01:07:04.818Z,7.15
2018-05-03T01:09:32.437Z,4.47
2018-05-03T01:11:59.891Z,4.22
2018-05-03T01:14:27.372Z,4.70
2018-05-03T01:16:54.827Z,4.03
2018-05-03T01:19:22.411Z,4.10
2018-05-03T01:21:49.869Z,4.20
2018-05-03T01:24:17.470Z,4.80
2018-05-03T01:26:45.695Z,4.57
2018-05-03T01:29:13.163Z,5.75
2018-05-03T01:31:40.678Z,3.92
2018-05-03T01:34:08.150Z,3.97
2018-05-03T01:36:35.607Z,4.25
2018-05-03T01:39:03.083Z,5.62
2018-05-03T01:41:30.531Z,4.57
2018-05-03T01:43:58.048Z,5.37
2018-05-03T01:46:26.263Z,4.05
2018-05-03T01:48:53.737Z,4.05
2018-05-03T01:51:21.230Z,6.03
2018-05-03T01:53:49.454Z,5.47
2018-05-03T01:56:16.926Z,4.68
2018-05-03T01:58:44.380Z,6.55
2018-05-03T02:01:11.900Z,4.75
2018-05-03T02:03:39.349Z,4.40
2018-05-03T02:06:06.813Z,6.00
2018-05-03T02:08:34.271Z,5.10
2018-05-03T02:11:01.743Z,6.50
2018-05-03T02:13:29.187Z,4.30
2018-05-03T02:15:56.658Z,5.50
2018-05-03T02:18:24.134Z,4.30
2018-05-03T02:20:51.602Z,5.70
2018-05-03T02:23:19.062Z,5.75
2018-05-03T02:25:46.523Z,5.32
2018-05-03T02:28:13.982Z,7.37
2018-05-03T02:30:42.190Z,6.30
2018-05-03T02:33:09.697Z,4.07
2018-05-03T02:35:37.138Z,5.75
2018-05-03T02:38:04.603Z,5.12
2018-05-03T02:40:32.062Z,7.90
2018-05-03T02:42:59.534Z,4.53
2018-05-03T02:45:26.975Z,6.50
2018-05-03T02:47:54.453Z,6.50
2018-05-03T02:50:21.897Z,6.57
2018-05-03T02:52:49.351Z,5.45
2018-05-03T02:55:16.811Z,5.30
2018-05-03T02:58:01.760Z,5.70
2018-05-03T03:00:46.763Z,5.32
2018-05-03T03:03:32.707Z,6.10
2018-05-03T03:06:11.850Z,6.60
2018-05-03T03:12:35.497Z,7.57
2018-05-03T03:15:20.335Z,7.82
2018-05-03T03:18:05.287Z,7.43
2018-05-03T03:21:00.172Z,8.88
2018-05-03T03:23:45.018Z,7.70
2018-05-03T03:29:58.893Z,6.93
2018-05-03T03:32:38.136Z,8.57
2018-05-03T03:38:35.833Z,6.25
2018-05-03T03:41:15.222Z,8.30
2018-05-03T03:43:54.473Z,6.35
2018-05-03T03:46:22.098Z,9.90
2018-05-03T03:48:49.544Z,7.78
2018-05-03T03:51:17.013Z,7.95
2018-05-03T03:53:44.460Z,7.12
2018-05-03T03:56:11.949Z,10.05
2018-05-03T03:58:39.426Z,7.62
2018-05-03T04:01:06.875Z,7.77
2018-05-03T04:03:34.341Z,9.77
2018-05-03T04:06:01.820Z,11.55
2018-05-03T04:08:29.282Z,8.32
2018-05-03T04:10:57.497Z,9.15
2018-05-03T04:13:24.968Z,8.25
2018-05-03T04:15:53.109Z,8.25
2018-05-03T04:18:32.564Z,10.73
2018-05-03T04:21:11.995Z,10.07
2018-05-03T04:24:06.302Z,8.48
2018-05-03T04:26:34.554Z,11.55
2018-05-03T04:29:02.014Z,9.40
2018-05-03T04:31:29.462Z,9.23
2018-05-03T04:33:56.938Z,8.98
2018-05-03T04:36:24.446Z,8.98
2018-05-03T04:38:51.883Z,8.67
2018-05-03T04:41:19.370Z,9.07
2018-05-03T04:43:47.579Z,9.97
2018-05-03T04:46:15.068Z,9.13
2018-05-03T04:48:42.525Z,11.37
2018-05-03T04:51:09.999Z,16.83
2018-05-03T04:53:39.122Z,10.07
2018-05-03T04:56:06.602Z,11.80
2018-05-03T04:58:34.039Z,9.98
2018-05-03T05:01:01.535Z,8.88
2018-05-03T05:03:28.993Z,9.15
2018-05-03T05:05:56.464Z,8.60
2018-05-03T05:08:23.959Z,14.18
2018-05-03T05:10:51.425Z,8.13
2018-05-03T05:13:18.862Z,8.00
2018-05-03T05:15:46.360Z,8.50
2018-05-03T05:18:13.815Z,8.67
2018-05-03T05:20:41.321Z,8.15
2018-05-03T05:23:09.543Z,7.90
2018-05-03T05:25:37.057Z,7.33
2018-05-03T05:28:05.343Z,7.72
2018-05-03T05:30:33.554Z,8.00
2018-05-03T05:33:01.027Z,7.20
2018-05-03T05:35:28.484Z,7.25
2018-05-03T05:37:55.976Z,7.80
2018-05-03T05:40:24.178Z,8.17
2018-05-03T05:42:51.713Z,6.57
2018-05-03T05:45:19.196Z,6.60
2018-05-03T05:47:46.752Z,6.15
2018-05-03T05:50:14.237Z,8.23
2018-05-03T05:52:41.743Z,7.43
2018-05-03T05:55:09.973Z,6.80
2018-05-03T05:57:37.493Z,7.00
2018-05-03T06:00:04.895Z,7.40
2018-05-03T06:02:32.391Z,10.33
2018-05-03T06:04:59.860Z,8.90
2018-05-03T06:07:28.110Z,13.40
2018-05-03T06:09:55.593Z,9.20
2018-05-03T06:12:23.887Z,9.60
2018-05-03T06:14:51.247Z,10.13
2018-05-03T06:17:18.702Z,7.77
2018-05-03T06:19:46.230Z,7.90
2018-05-03T06:22:17.586Z,7.17
2018-05-03T06:24:45.263Z,10.60
2018-05-03T06:27:12.953Z,8.67
2018-05-03T06:29:47.498Z,11.07
2018-05-03T06:32:15.874Z,7.07
2018-05-03T06:34:44.277Z,7.27
2018-05-03T06:37:12.052Z,9.13
2018-05-03T06:39:39.782Z,8.60
2018-05-03T06:42:08.206Z,11.20
2018-05-03T06:44:35.781Z,8.93
2018-05-03T06:47:03.768Z,9.33
2018-05-03T06:49:31.541Z,9.83
2018-05-03T06:52:00.271Z,8.77
2018-05-03T06:54:28.678Z,10.33
2018-05-03T06:56:56.344Z,10.00
2018-05-03T07:19:33.477Z,11.17
2018-05-03T07:38:11.487Z,8.50
2018-05-03T07:40:40.278Z,7.00
2018-05-03T07:43:16.123Z,7.30
2018-05-03T07:45:48.116Z,7.17
2018-05-03T07:48:16.245Z,8.90
2018-05-03T07:50:45.002Z,6.97
2018-05-03T07:53:13.461Z,7.00
2018-05-03T07:55:41.114Z,6.70
2018-05-03T07:58:11.633Z,6.83
2018-05-03T08:00:44.421Z,8.13
2018-05-03T08:03:15.999Z,6.83
2018-05-03T08:05:46.249Z,7.33
2018-05-03T08:21:05.094Z,7.90
2018-05-03T08:23:33.761Z,7.03
2018-05-03T08:26:09.481Z,7.97
2018-05-03T08:28:37.505Z,10.50
2018-05-03T08:31:05.516Z,7.90
2018-05-03T08:33:33.598Z,10.10
2018-05-03T08:36:01.591Z,8.67
2018-05-03T08:38:31.136Z,13.33
2018-05-03T08:41:03.258Z,10.20
2018-05-03T08:43:32.638Z,10.77
2018-05-03T08:46:01.277Z,9.80
2018-05-03T08:48:29.287Z,9.33
2018-05-03T08:50:57.203Z,9.27
2018-05-03T08:53:25.214Z,8.90
2018-05-03T09:08:48.275Z,10.70
2018-05-03T09:20:56.892Z,10.67
2018-05-03T09:23:25.950Z,11.80
2018-05-03T09:25:54.844Z,10.27
2018-05-03T09:28:27.740Z,13.07
2018-05-03T09:31:08.516Z,11.93
2018-05-03T09:33:36.683Z,14.77
2018-05-03T09:36:06.477Z,10.33
2018-05-03T09:38:34.342Z,12.63
2018-05-03T09:41:02.352Z,9.37
2018-05-03T09:43:31.425Z,10.20
2018-05-03T09:45:59.912Z,9.33
2018-05-03T09:48:30.185Z,9.37
2018-05-03T09:50:59.119Z,9.77
2018-05-03T09:53:32.048Z,10.17
2018-05-03T09:56:00.485Z,9.87
2018-05-03T09:58:30.672Z,10.10
2018-05-03T10:13:53.840Z,11.60
2018-05-03T10:16:21.747Z,10.60
2018-05-03T10:18:50.785Z,11.30
2018-05-03T10:21:18.970Z,14.60
2018-05-03T10:23:47.120Z,10.60
2018-05-03T10:26:14.927Z,10.00
2018-05-03T10:28:43.101Z,9.50
2018-05-03T10:31:11.617Z,10.60
2018-05-03T10:33:39.331Z,10.43
2018-05-03T10:36:07.361Z,11.07
2018-05-03T10:38:35.119Z,11.10
2018-05-03T10:41:03.136Z,11.47
2018-05-03T10:43:30.915Z,11.63
2018-05-03T10:45:58.601Z,12.57
2018-05-03T10:48:26.488Z,11.33
2018-05-03T10:50:54.131Z,11.00
2018-05-03T10:53:21.983Z,10.63
2018-05-03T10:55:50.497Z,10.70
2018-05-03T10:58:18.391Z,9.23
2018-05-03T11:00:46.341Z,12.90
2018-05-03T11:03:14.209Z,10.40
2018-05-03T11:05:41.874Z,9.80
2018-05-03T11:08:09.796Z,10.37
2018-05-03T11:10:38.506Z,10.50
2018-05-03T11:26:01.678Z,11.40
2018-05-03T11:28:33.768Z,13.50
2018-05-03T11:31:06.780Z,12.30
2018-05-03T11:33:34.896Z,12.80
2018-05-03T11:36:08.101Z,13.10
2018-05-03T11:38:36.317Z,15.80
2018-05-03T11:41:05.195Z,13.60
2018-05-03T11:43:33.561Z,13.10
2018-05-03T11:46:01.297Z,15.33
2018-05-03T11:48:31.435Z,13.50
2018-05-03T12:07:04.919Z,9.60
2018-05-03T12:09:32.768Z,9.33
2018-05-03T12:12:01.134Z,8.30
2018-05-03T12:14:31.418Z,7.20
2018-05-03T12:16:59.797Z,7.57
2018-05-03T12:19:27.749Z,7.60
2018-05-03T12:21:55.805Z,8.77
2018-05-03T12:24:23.335Z,6.03
2018-05-03T12:26:50.736Z,7.70
2018-05-03T12:29:18.216Z,7.80
2018-05-03T12:31:47.040Z,6.03
2018-05-03T12:34:14.516Z,7.20
2018-05-03T12:36:41.969Z,7.43
2018-05-03T12:39:10.188Z,7.93
2018-05-03T12:41:37.650Z,7.90
2018-05-03T12:44:05.895Z,7.80
2018-05-03T12:46:33.401Z,7.73
2018-05-03T12:49:01.658Z,7.30
2018-05-03T12:51:29.114Z,7.77
2018-05-03T12:53:56.670Z,6.63
2018-05-03T12:56:24.109Z,7.50
2018-05-03T12:58:52.374Z,8.73
2018-05-03T13:01:19.830Z,12.50
2018-05-03T13:03:47.317Z,7.37
2018-05-03T13:06:14.775Z,7.23
2018-05-03T13:08:42.281Z,6.60
2018-05-03T13:11:09.725Z,6.47
2018-05-03T13:13:37.220Z,8.10
2018-05-03T13:16:04.692Z,5.70
2018-05-03T13:18:32.131Z,8.00
2018-05-03T13:20:59.584Z,5.90
2018-05-03T13:23:27.089Z,5.07
2018-05-03T13:25:54.539Z,5.50
2018-05-03T13:28:21.994Z,5.50
2018-05-03T13:30:49.484Z,6.27
2018-05-03T13:33:17.730Z,6.80
2018-05-03T13:35:45.209Z,6.87
2018-05-03T13:38:12.648Z,7.27
2018-05-03T13:40:40.155Z,7.50
2018-05-03T13:43:07.615Z,6.37
2018-05-03T13:45:35.102Z,7.17
2018-05-03T13:48:02.573Z,7.00
2018-05-03T13:50:30.062Z,6.43
2018-05-03T13:52:57.510Z,6.80
2018-05-03T13:55:24.996Z,6.60
2018-05-03T13:57:52.451Z,6.07
2018-05-03T14:00:19.945Z,6.30
2018-05-03T14:02:47.416Z,6.57
2018-05-03T14:05:14.846Z,5.87
2018-05-03T14:07:43.102Z,5.23
2018-05-03T14:10:10.568Z,6.13
2018-05-03T14:12:38.043Z,6.30
2018-05-03T14:15:05.500Z,5.60
2018-05-03T14:17:32.974Z,6.43
2018-05-03T14:20:00.510Z,5.13
2018-05-03T14:22:27.961Z,4.87
2018-05-03T14:24:55.434Z,6.00
2018-05-03T14:27:26.742Z,4.90
2018-05-03T14:29:54.987Z,6.17
2018-05-03T14:32:23.166Z,5.40
2018-05-03T14:34:50.655Z,5.30
2018-05-03T14:37:18.114Z,6.47
2018-05-03T14:39:45.570Z,5.57
2018-05-03T14:42:13.039Z,5.87
2018-05-03T14:44:40.530Z,4.77
2018-05-03T14:47:08.013Z,5.27
2018-05-03T14:49:35.536Z,4.80
2018-05-03T14:52:03.001Z,4.87
2018-05-03T14:54:30.485Z,5.13
2018-05-03T14:56:58.736Z,5.07
2018-05-03T14:59:26.216Z,5.40
2018-05-03T15:01:53.707Z,4.17
2018-05-03T15:04:21.179Z,4.70
2018-05-03T15:06:48.621Z,5.90
2018-05-03T15:09:16.082Z,4.80
2018-05-03T15:11:43.564Z,4.60
2018-05-03T15:14:11.003Z,4.87
2018-05-03T15:16:39.253Z,5.17
2018-05-03T15:19:06.709Z,5.47
2018-05-03T15:21:34.168Z,6.70
2018-05-03T15:24:01.618Z,5.77
2018-05-03T15:26:29.100Z,5.47
2018-05-03T15:28:56.565Z,5.80
2018-05-03T15:31:24.030Z,8.80
2018-05-03T15:33:51.554Z,5.83
2018-05-03T15:36:18.983Z,4.87
2018-05-03T15:38:46.850Z,3.80
2018-05-03T15:41:14.956Z,4.50
2018-05-03T15:43:42.431Z,4.67
2018-05-03T15:46:09.928Z,5.07
2018-05-03T15:48:38.235Z,6.07
2018-05-03T15:51:05.725Z,4.33
2018-05-03T15:53:33.189Z,4.30
2018-05-03T15:56:00.644Z,9.70
2018-05-03T15:58:28.109Z,3.87
2018-05-03T16:00:56.384Z,5.00
2018-05-03T16:03:23.875Z,4.10
2018-05-03T16:05:51.387Z,4.80
2018-05-03T16:08:18.950Z,5.00
2018-05-03T16:10:47.176Z,7.27
2018-05-03T16:13:14.655Z,4.20
2018-05-03T16:15:42.109Z,7.80
2018-05-03T16:18:09.587Z,7.00
2018-05-03T16:20:38.323Z,4.20
2018-05-03T16:23:05.794Z,4.53
2018-05-03T16:25:33.887Z,4.60
2018-05-03T16:28:01.351Z,20.33
2018-05-03T16:30:28.826Z,4.40
2018-05-03T16:32:56.291Z,4.57
2018-05-03T16:35:23.739Z,4.33
2018-05-03T16:37:51.189Z,4.10
2018-05-03T16:40:19.385Z,3.17
2018-05-03T16:42:47.637Z,4.13
2018-05-03T16:45:15.203Z,4.20
2018-05-03T16:47:43.528Z,4.60
2018-05-03T16:50:11.046Z,6.10
2018-05-03T16:52:38.588Z,5.03
2018-05-03T16:55:06.064Z,4.57
2018-05-03T16:57:33.534Z,4.60
2018-05-03T17:00:01.035Z,3.87
2018-05-03T17:02:28.511Z,6.43
2018-05-03T17:04:56.877Z,4.73
2018-05-03T17:07:24.227Z,5.10
2018-05-03T17:09:51.725Z,4.80
2018-05-03T17:12:19.249Z,4.93
2018-05-03T17:14:46.706Z,4.00
2018-05-03T17:17:14.973Z,5.57
2018-05-03T17:19:42.431Z,4.40
2018-05-03T17:22:09.930Z,4.30
2018-05-03T17:24:37.391Z,4.43
2018-05-03T17:27:04.882Z,4.90
2018-05-03T17:29:32.375Z,4.97
2018-05-03T17:32:00.622Z,4.37
2018-05-03T17:34:28.114Z,4.83
2018-05-03T17:36:55.576Z,4.70
2018-05-03T17:39:23.047Z,4.60
2018-05-03T17:41:50.568Z,4.27
2018-05-03T17:44:34.147Z,4.80
2018-05-03T17:47:01.632Z,4.23
2018-05-03T17:49:30.495Z,4.60
2018-05-03T17:51:59.133Z,4.83
2018-05-03T17:54:26.615Z,4.93
2018-05-03T17:57:13.503Z,5.90
2018-05-03T17:59:41.003Z,5.27
2018-05-03T18:02:10.395Z,5.47
2018-05-03T18:04:37.955Z,6.53
2018-05-03T18:07:05.373Z,5.10
2018-05-03T18:09:32.849Z,5.80
2018-05-03T18:12:00.325Z,7.03
2018-05-03T18:14:27.846Z,5.63
2018-05-03T18:16:58.173Z,6.17
2018-05-03T18:19:25.758Z,6.60
2018-05-03T18:28:41.035Z,5.93
2018-05-03T18:31:43.303Z,5.30
2018-05-03T18:34:51.894Z,6.47
2018-05-03T18:37:35.460Z,7.67
2018-05-03T18:40:29.435Z,6.43
2018-05-03T18:43:01.436Z,6.70
2018-05-03T18:48:51.850Z,6.23
2018-05-03T19:04:20.688Z,6.73
2018-05-03T19:06:48.162Z,6.13
2018-05-03T19:09:15.634Z,6.00
2018-05-03T19:11:43.879Z,6.50
2018-05-03T19:14:12.076Z,7.33
2018-05-03T19:16:39.566Z,7.47
2018-05-03T19:19:07.450Z,6.03
2018-05-03T19:21:34.925Z,5.70
2018-05-03T19:24:02.408Z,6.47
2018-05-03T19:26:30.646Z,7.30
2018-05-03T19:28:58.138Z,7.40
2018-05-03T19:31:26.063Z,6.07
2018-05-03T19:37:20.731Z,7.10
2018-05-03T19:40:12.664Z,5.03
2018-05-03T19:58:58.839Z,4.70
2018-05-03T20:01:26.347Z,4.87
2018-05-03T20:03:53.907Z,5.00
2018-05-03T20:06:21.393Z,4.87
2018-05-03T20:08:48.938Z,5.27
2018-05-03T20:11:16.400Z,3.10
2018-05-03T20:13:43.927Z,4.30
2018-05-03T20:16:11.475Z,7.90
2018-05-03T20:18:38.999Z,3.60
2018-05-03T20:21:07.299Z,4.57
2018-05-03T20:23:36.707Z,4.90
2018-05-03T20:26:04.201Z,3.17
2018-05-03T20:28:31.738Z,3.70
2018-05-03T20:30:59.793Z,3.80
2018-05-03T20:33:29.344Z,7.00
2018-05-03T20:35:59.183Z,3.63
2018-05-03T20:38:26.727Z,3.70
2018-05-03T20:40:54.304Z,4.43
2018-05-03T20:43:21.879Z,4.70
2018-05-03T20:54:30.599Z,6.00
2018-05-03T21:03:17.197Z,3.50
2018-05-03T21:10:37.023Z,3.77
2018-05-03T21:13:24.539Z,4.83
2018-05-03T21:16:07.974Z,5.97
2018-05-03T21:18:43.710Z,6.93
2018-05-03T21:28:44.179Z,3.77
2018-05-03T21:34:41.064Z,4.53
2018-05-03T21:38:41.819Z,3.73
2018-05-03T21:44:21.988Z,4.20
2018-05-03T21:50:05.934Z,5.87
2018-05-03T22:04:59.278Z,4.53
2018-05-03T22:07:35.824Z,3.80
2018-05-03T22:10:13.498Z,6.65
2018-05-03T22:12:46.344Z,7.07
2018-05-03T22:15:16.660Z,3.50
2018-05-03T22:17:46.226Z,5.35
2018-05-03T22:20:14.241Z,5.70
2018-05-03T22:22:43.296Z,6.15
2018-05-03T22:25:25.370Z,6.70
2018-05-03T22:27:54.273Z,7.55
2018-05-03T22:30:22.507Z,5.60
2018-05-03T22:32:50.220Z,4.65
2018-05-03T22:35:19.573Z,3.10
2018-05-03T22:37:52.234Z,5.57
2018-05-03T22:40:21.497Z,3.70
2018-05-03T22:42:50.504Z,3.20
2018-05-03T22:45:19.893Z,5.30
2018-05-03T22:47:47.663Z,5.55
2018-05-03T22:50:20.770Z,4.93
2018-05-03T22:52:55.005Z,4.95
2018-05-03T22:55:30.960Z,6.28
2018-05-03T22:58:04.675Z,8.15
2018-05-03T23:00:32.736Z,5.25
2018-05-03T23:03:04.998Z,5.25
2018-05-03T23:05:40.979Z,23.42
2018-05-03T23:17:48.897Z,4.85
2018-05-03T23:20:27.798Z,6.30
2018-05-03T23:23:01.070Z,4.45
2018-05-03T23:25:33.787Z,10.20
2018-05-03T23:28:02.104Z,5.85
2018-05-03T23:30:30.123Z,6.55
2018-05-03T23:33:04.692Z,4.40
2018-05-03T23:35:32.618Z,5.43
2018-05-03T23:38:01.735Z,3.25
2018-05-03T23:40:31.167Z,4.65
2018-05-03T23:42:59.848Z,4.15
2018-05-03T23:45:31.490Z,7.10
2018-05-03T23:47:59.861Z,9.38
2018-05-03T23:50:28.889Z,4.57
2018-05-03T23:52:57.676Z,6.97
2018-05-03T23:55:26.269Z,6.72
2018-05-03T23:58:13.117Z,6.18
